sensor_id;sensor_type;location;lat;lon;timestamp;pressure;altitude;pressure_sealevel;temperature;humidity
20971;BME280;10644;48.834;10.088;2024-01-25T00:02:07;97713.09;;;11.61;63.42
20971;BME280;10644;48.834;10.088;2024-01-25T00:04:33;97711.66;;;11.54;63.36
20971;BME280;10644;48.834;10.088;2024-01-25T00:06:58;97702.22;;;11.55;63.59
20971;BME280;10644;48.834;10.088;2024-01-25T00:09:24;97708.53;;;11.68;62.91
20971;BME280;10644;48.834;10.088;2024-01-25T00:11:49;97698.53;;;11.62;63.38
20971;BME280;10644;48.834;10.088;2024-01-25T00:14:14;97697.75;;;11.80;62.67
20971;BME280;10644;48.834;10.088;2024-01-25T00:16:41;97725.56;;;11.90;62.25
20971;BME280;10644;48.834;10.088;2024-01-25T00:19:07;97709.63;;;11.82;62.37
20971;BME280;10644;48.834;10.088;2024-01-25T00:21:32;97711.81;;;11.91;62.26
20971;BME280;10644;48.834;10.088;2024-01-25T00:23:57;97713.09;;;11.81;62.05
20971;BME280;10644;48.834;10.088;2024-01-25T00:26:25;97712.47;;;11.76;62.30
20971;BME280;10644;48.834;10.088;2024-01-25T00:28:50;97703.47;;;11.86;61.95
20971;BME280;10644;48.834;10.088;2024-01-25T00:31:16;97709.63;;;11.82;62.29
20971;BME280;10644;48.834;10.088;2024-01-25T00:33:41;97694.81;;;11.69;62.26
20971;BME280;10644;48.834;10.088;2024-01-25T00:36:07;97704.13;;;11.71;62.39
20971;BME280;10644;48.834;10.088;2024-01-25T00:38:33;97696.25;;;11.76;61.94
20971;BME280;10644;48.834;10.088;2024-01-25T00:41:01;97711.31;;;11.63;62.57
20971;BME280;10644;48.834;10.088;2024-01-25T00:43:26;97702.91;;;11.60;62.35
20971;BME280;10644;48.834;10.088;2024-01-25T00:45:52;97722.72;;;11.76;62.09
20971;BME280;10644;48.834;10.088;2024-01-25T00:48:18;97716.66;;;11.57;62.68
20971;BME280;10644;48.834;10.088;2024-01-25T00:50:43;97708.56;;;11.46;62.87
20971;BME280;10644;48.834;10.088;2024-01-25T00:53:09;97708.69;;;11.43;63.48
20971;BME280;10644;48.834;10.088;2024-01-25T00:55:35;97706.75;;;11.28;63.42
20971;BME280;10644;48.834;10.088;2024-01-25T00:58:00;97705.47;;;11.38;63.83
20971;BME280;10644;48.834;10.088;2024-01-25T01:00:26;97695.69;;;11.48;63.53
20971;BME280;10644;48.834;10.088;2024-01-25T01:02:53;97698.03;;;11.32;63.60
20971;BME280;10644;48.834;10.088;2024-01-25T01:05:19;97699.78;;;11.10;64.20
20971;BME280;10644;48.834;10.088;2024-01-25T01:07:44;97691.78;;;11.18;64.71
20971;BME280;10644;48.834;10.088;2024-01-25T01:10:10;97705.72;;;11.32;64.32
20971;BME280;10644;48.834;10.088;2024-01-25T01:12:35;97690.94;;;11.39;64.14
20971;BME280;10644;48.834;10.088;2024-01-25T01:15:03;97682.66;;;11.52;63.59
20971;BME280;10644;48.834;10.088;2024-01-25T01:17:29;97696.31;;;11.53;63.57
20971;BME280;10644;48.834;10.088;2024-01-25T01:19:57;97690.69;;;11.45;63.28
20971;BME280;10644;48.834;10.088;2024-01-25T01:22:22;97696.41;;;11.51;63.69
20971;BME280;10644;48.834;10.088;2024-01-25T01:24:47;97712.28;;;11.39;64.25
20971;BME280;10644;48.834;10.088;2024-01-25T01:27:13;97700.72;;;11.29;64.17
20971;BME280;10644;48.834;10.088;2024-01-25T01:29:38;97704.91;;;11.32;64.33
20971;BME280;10644;48.834;10.088;2024-01-25T01:32:04;97717.28;;;11.22;65.08
20971;BME280;10644;48.834;10.088;2024-01-25T01:34:29;97706.88;;;11.25;64.81
20971;BME280;10644;48.834;10.088;2024-01-25T01:36:54;97708.63;;;11.45;63.77
20971;BME280;10644;48.834;10.088;2024-01-25T01:39:20;97699.53;;;11.58;63.97
20971;BME280;10644;48.834;10.088;2024-01-25T01:41:48;97713.47;;;11.52;64.35
20971;BME280;10644;48.834;10.088;2024-01-25T01:44:16;97702.16;;;11.36;64.41
20971;BME280;10644;48.834;10.088;2024-01-25T01:46:46;97711.19;;;11.45;64.11
20971;BME280;10644;48.834;10.088;2024-01-25T01:49:12;97712.59;;;11.52;64.01
20971;BME280;10644;48.834;10.088;2024-01-25T01:51:42;97735.00;;;11.48;64.53
20971;BME280;10644;48.834;10.088;2024-01-25T01:54:11;97736.63;;;11.29;64.86
20971;BME280;10644;48.834;10.088;2024-01-25T01:56:36;97729.72;;;11.31;64.93
20971;BME280;10644;48.834;10.088;2024-01-25T01:59:04;97724.81;;;11.25;64.74
20971;BME280;10644;48.834;10.088;2024-01-25T02:01:31;97728.41;;;11.43;64.62
20971;BME280;10644;48.834;10.088;2024-01-25T02:03:59;97735.84;;;11.27;65.23
20971;BME280;10644;48.834;10.088;2024-01-25T02:06:24;97734.84;;;11.31;65.21
20971;BME280;10644;48.834;10.088;2024-01-25T02:08:50;97729.53;;;11.14;64.97
20971;BME280;10644;48.834;10.088;2024-01-25T02:11:17;97744.56;;;11.23;65.59
20971;BME280;10644;48.834;10.088;2024-01-25T02:13:43;97729.19;;;11.23;65.82
20971;BME280;10644;48.834;10.088;2024-01-25T02:16:09;97725.84;;;11.21;65.53
20971;BME280;10644;48.834;10.088;2024-01-25T02:18:34;97727.28;;;11.28;65.20
20971;BME280;10644;48.834;10.088;2024-01-25T02:21:00;97722.56;;;11.39;64.79
20971;BME280;10644;48.834;10.088;2024-01-25T02:23:28;97730.75;;;11.47;64.20
20971;BME280;10644;48.834;10.088;2024-01-25T02:25:53;97736.59;;;11.51;64.56
20971;BME280;10644;48.834;10.088;2024-01-25T02:28:18;97721.81;;;11.57;64.29
20971;BME280;10644;48.834;10.088;2024-01-25T02:30:44;97736.84;;;11.45;64.60
20971;BME280;10644;48.834;10.088;2024-01-25T02:33:10;97727.69;;;11.39;64.81
20971;BME280;10644;48.834;10.088;2024-01-25T02:35:35;97713.81;;;11.43;64.02
20971;BME280;10644;48.834;10.088;2024-01-25T02:38:00;97719.91;;;11.41;64.24
20971;BME280;10644;48.834;10.088;2024-01-25T02:40:26;97729.50;;;11.57;63.76
20971;BME280;10644;48.834;10.088;2024-01-25T02:42:54;97719.41;;;11.53;63.66
20971;BME280;10644;48.834;10.088;2024-01-25T02:45:19;97720.50;;;11.47;63.67
20971;BME280;10644;48.834;10.088;2024-01-25T02:47:45;97718.78;;;11.48;63.95
20971;BME280;10644;48.834;10.088;2024-01-25T02:50:11;97711.66;;;11.54;63.65
20971;BME280;10644;48.834;10.088;2024-01-25T02:52:36;97690.16;;;11.57;63.34
20971;BME280;10644;48.834;10.088;2024-01-25T02:55:02;97713.22;;;11.78;63.31
20971;BME280;10644;48.834;10.088;2024-01-25T02:57:27;97718.00;;;11.67;63.04
20971;BME280;10644;48.834;10.088;2024-01-25T02:59:52;97699.50;;;11.59;63.33
20971;BME280;10644;48.834;10.088;2024-01-25T03:02:18;97709.66;;;11.62;63.54
20971;BME280;10644;48.834;10.088;2024-01-25T03:04:45;97707.19;;;11.59;63.28
20971;BME280;10644;48.834;10.088;2024-01-25T03:07:11;97714.63;;;11.65;63.30
20971;BME280;10644;48.834;10.088;2024-01-25T03:09:36;97714.91;;;11.59;63.52
20971;BME280;10644;48.834;10.088;2024-01-25T03:12:02;97722.75;;;11.55;63.50
20971;BME280;10644;48.834;10.088;2024-01-25T03:14:27;97704.00;;;11.53;63.78
20971;BME280;10644;48.834;10.088;2024-01-25T03:16:52;97717.56;;;11.56;63.25
20971;BME280;10644;48.834;10.088;2024-01-25T03:19:18;97722.41;;;11.64;62.70
20971;BME280;10644;48.834;10.088;2024-01-25T03:21:46;97723.53;;;11.57;62.80
20971;BME280;10644;48.834;10.088;2024-01-25T03:24:11;97722.88;;;11.52;62.96
20971;BME280;10644;48.834;10.088;2024-01-25T03:26:37;97728.19;;;11.47;62.95
20971;BME280;10644;48.834;10.088;2024-01-25T03:29:02;97717.19;;;11.45;63.17
20971;BME280;10644;48.834;10.088;2024-01-25T03:31:27;97728.97;;;11.49;63.25
20971;BME280;10644;48.834;10.088;2024-01-25T03:33:53;97735.75;;;11.50;63.54
20971;BME280;10644;48.834;10.088;2024-01-25T03:36:18;97739.72;;;11.59;63.14
20971;BME280;10644;48.834;10.088;2024-01-25T03:38:44;97723.31;;;11.41;63.50
20971;BME280;10644;48.834;10.088;2024-01-25T03:41:09;97728.50;;;11.40;63.22
20971;BME280;10644;48.834;10.088;2024-01-25T03:43:35;97728.50;;;11.40;63.77
20971;BME280;10644;48.834;10.088;2024-01-25T03:46:00;97726.19;;;11.34;63.15
20971;BME280;10644;48.834;10.088;2024-01-25T03:48:26;97738.31;;;11.30;62.75
20971;BME280;10644;48.834;10.088;2024-01-25T03:50:51;97749.78;;;11.42;63.08
20971;BME280;10644;48.834;10.088;2024-01-25T03:53:16;97743.28;;;11.55;62.21
20971;BME280;10644;48.834;10.088;2024-01-25T03:55:42;97730.75;;;11.47;62.68
20971;BME280;10644;48.834;10.088;2024-01-25T03:58:07;97744.09;;;11.55;62.37
20971;BME280;10644;48.834;10.088;2024-01-25T04:00:33;97740.19;;;11.47;62.25
20971;BME280;10644;48.834;10.088;2024-01-25T04:02:58;97753.38;;;11.38;62.29
20971;BME280;10644;48.834;10.088;2024-01-25T04:05:24;97756.31;;;11.29;62.27
20971;BME280;10644;48.834;10.088;2024-01-25T04:07:51;97763.94;;;11.30;61.97
20971;BME280;10644;48.834;10.088;2024-01-25T04:10:17;97759.31;;;11.18;62.19
20971;BME280;10644;48.834;10.088;2024-01-25T04:12:42;97754.03;;;11.21;62.19
20971;BME280;10644;48.834;10.088;2024-01-25T04:15:08;97745.34;;;11.25;61.64
20971;BME280;10644;48.834;10.088;2024-01-25T04:17:37;97745.22;;;11.28;61.75
20971;BME280;10644;48.834;10.088;2024-01-25T04:20:02;97731.56;;;11.28;62.16
20971;BME280;10644;48.834;10.088;2024-01-25T04:22:28;97736.53;;;11.11;62.29
20971;BME280;10644;48.834;10.088;2024-01-25T04:24:53;97740.13;;;11.05;62.53
20971;BME280;10644;48.834;10.088;2024-01-25T04:27:18;97744.50;;;11.03;62.60
20971;BME280;10644;48.834;10.088;2024-01-25T04:29:44;97746.16;;;11.04;62.57
20971;BME280;10644;48.834;10.088;2024-01-25T04:32:12;97737.38;;;11.11;62.30
20971;BME280;10644;48.834;10.088;2024-01-25T04:34:37;97737.72;;;11.02;62.18
20971;BME280;10644;48.834;10.088;2024-01-25T04:37:03;97754.66;;;11.06;62.67
20971;BME280;10644;48.834;10.088;2024-01-25T04:39:28;97762.44;;;11.03;62.73
20971;BME280;10644;48.834;10.088;2024-01-25T04:41:54;97765.72;;;11.07;62.58
20971;BME280;10644;48.834;10.088;2024-01-25T04:44:19;97773.47;;;11.05;62.64
20971;BME280;10644;48.834;10.088;2024-01-25T04:46:44;97776.41;;;10.96;63.37
20971;BME280;10644;48.834;10.088;2024-01-25T04:49:10;97778.97;;;10.96;63.26
20971;BME280;10644;48.834;10.088;2024-01-25T04:51:35;97774.41;;;10.81;63.07
20971;BME280;10644;48.834;10.088;2024-01-25T04:54:01;97785.72;;;10.76;63.94
20971;BME280;10644;48.834;10.088;2024-01-25T04:56:26;97777.31;;;10.72;64.09
20971;BME280;10644;48.834;10.088;2024-01-25T04:58:54;97783.00;;;10.80;63.33
20971;BME280;10644;48.834;10.088;2024-01-25T05:01:19;97774.84;;;10.69;64.14
20971;BME280;10644;48.834;10.088;2024-01-25T05:03:45;97762.25;;;10.86;63.45
20971;BME280;10644;48.834;10.088;2024-01-25T05:06:10;97775.44;;;10.99;63.25
20971;BME280;10644;48.834;10.088;2024-01-25T05:08:36;97783.13;;;10.99;62.79
20971;BME280;10644;48.834;10.088;2024-01-25T05:11:01;97785.53;;;11.03;62.76
20971;BME280;10644;48.834;10.088;2024-01-25T05:13:26;97775.84;;;10.88;63.38
20971;BME280;10644;48.834;10.088;2024-01-25T05:15:55;97770.50;;;10.94;63.55
20971;BME280;10644;48.834;10.088;2024-01-25T05:18:20;97780.97;;;10.88;63.33
20971;BME280;10644;48.834;10.088;2024-01-25T05:20:45;97785.69;;;10.77;63.70
20971;BME280;10644;48.834;10.088;2024-01-25T05:23:11;97789.25;;;10.73;63.83
20971;BME280;10644;48.834;10.088;2024-01-25T05:25:36;97791.44;;;10.82;63.83
20971;BME280;10644;48.834;10.088;2024-01-25T05:28:01;97779.31;;;10.64;63.98
20971;BME280;10644;48.834;10.088;2024-01-25T05:30:27;97781.28;;;10.81;63.68
20971;BME280;10644;48.834;10.088;2024-01-25T05:32:52;97779.66;;;10.78;63.31
20971;BME280;10644;48.834;10.088;2024-01-25T05:35:19;97787.50;;;10.74;63.29
20971;BME280;10644;48.834;10.088;2024-01-25T05:37:45;97783.31;;;10.71;64.04
20971;BME280;10644;48.834;10.088;2024-01-25T05:40:11;97778.31;;;10.68;63.74
20971;BME280;10644;48.834;10.088;2024-01-25T05:42:36;97780.03;;;10.68;63.30
20971;BME280;10644;48.834;10.088;2024-01-25T05:45:02;97800.47;;;10.69;62.96
20971;BME280;10644;48.834;10.088;2024-01-25T05:47:31;97801.38;;;10.68;62.81
20971;BME280;10644;48.834;10.088;2024-01-25T05:49:57;97802.38;;;10.64;62.92
20971;BME280;10644;48.834;10.088;2024-01-25T05:52:23;97797.69;;;10.52;62.84
20971;BME280;10644;48.834;10.088;2024-01-25T05:54:49;97807.41;;;10.67;63.18
20971;BME280;10644;48.834;10.088;2024-01-25T05:57:15;97822.59;;;10.72;62.42
20971;BME280;10644;48.834;10.088;2024-01-25T05:59:41;97812.31;;;10.73;62.41
20971;BME280;10644;48.834;10.088;2024-01-25T06:02:06;97817.97;;;10.81;62.22
20971;BME280;10644;48.834;10.088;2024-01-25T06:04:32;97810.94;;;10.86;61.71
20971;BME280;10644;48.834;10.088;2024-01-25T06:06:58;97836.94;;;11.00;61.50
20971;BME280;10644;48.834;10.088;2024-01-25T06:09:23;97837.75;;;11.01;61.00
20971;BME280;10644;48.834;10.088;2024-01-25T06:11:52;97837.47;;;11.08;60.71
20971;BME280;10644;48.834;10.088;2024-01-25T06:14:18;97829.06;;;11.05;60.72
20971;BME280;10644;48.834;10.088;2024-01-25T06:16:43;97834.13;;;11.06;60.70
20971;BME280;10644;48.834;10.088;2024-01-25T06:19:10;97828.59;;;11.17;60.30
20971;BME280;10644;48.834;10.088;2024-01-25T06:21:35;97831.22;;;10.92;62.46
20971;BME280;10644;48.834;10.088;2024-01-25T06:24:03;97840.72;;;10.90;61.87
20971;BME280;10644;48.834;10.088;2024-01-25T06:26:28;97842.88;;;10.78;61.34
20971;BME280;10644;48.834;10.088;2024-01-25T06:28:56;97842.09;;;10.76;61.47
20971;BME280;10644;48.834;10.088;2024-01-25T06:31:23;97833.97;;;10.65;62.01
20971;BME280;10644;48.834;10.088;2024-01-25T06:33:56;97853.56;;;10.66;61.64
20971;BME280;10644;48.834;10.088;2024-01-25T06:36:22;97854.41;;;10.66;61.50
20971;BME280;10644;48.834;10.088;2024-01-25T06:38:47;97869.63;;;10.71;61.66
20971;BME280;10644;48.834;10.088;2024-01-25T06:41:13;97868.88;;;10.67;61.46
20971;BME280;10644;48.834;10.088;2024-01-25T06:43:41;97876.00;;;10.82;61.45
20971;BME280;10644;48.834;10.088;2024-01-25T06:46:09;97878.19;;;10.70;61.70
20971;BME280;10644;48.834;10.088;2024-01-25T06:48:37;97884.13;;;10.70;62.14
20971;BME280;10644;48.834;10.088;2024-01-25T06:51:07;97865.97;;;10.53;62.21
20971;BME280;10644;48.834;10.088;2024-01-25T06:53:48;97876.19;;;10.53;62.58
20971;BME280;10644;48.834;10.088;2024-01-25T06:56:23;97860.16;;;10.48;62.70
20971;BME280;10644;48.834;10.088;2024-01-25T06:58:56;97856.06;;;10.44;62.71
20971;BME280;10644;48.834;10.088;2024-01-25T07:01:22;97860.06;;;10.51;62.24
20971;BME280;10644;48.834;10.088;2024-01-25T07:04:03;97853.63;;;10.40;62.97
20971;BME280;10644;48.834;10.088;2024-01-25T07:06:31;97878.09;;;10.48;62.95
20971;BME280;10644;48.834;10.088;2024-01-25T07:08:59;97866.50;;;10.38;63.18
20971;BME280;10644;48.834;10.088;2024-01-25T07:11:27;97882.53;;;10.43;62.94
20971;BME280;10644;48.834;10.088;2024-01-25T07:13:53;97867.31;;;10.39;62.93
20971;BME280;10644;48.834;10.088;2024-01-25T07:16:28;97877.47;;;10.42;62.99
20971;BME280;10644;48.834;10.088;2024-01-25T07:18:55;97873.38;;;10.36;63.85
20971;BME280;10644;48.834;10.088;2024-01-25T07:21:23;97876.84;;;10.60;63.00
20971;BME280;10644;48.834;10.088;2024-01-25T07:23:56;97883.47;;;10.65;62.28
20971;BME280;10644;48.834;10.088;2024-01-25T07:26:24;97894.59;;;10.64;63.06
20971;BME280;10644;48.834;10.088;2024-01-25T07:28:49;97895.44;;;10.65;62.80
20971;BME280;10644;48.834;10.088;2024-01-25T07:31:15;97890.63;;;10.80;62.51
20971;BME280;10644;48.834;10.088;2024-01-25T07:33:40;97888.28;;;10.97;61.88
20971;BME280;10644;48.834;10.088;2024-01-25T07:36:06;97888.41;;;10.94;61.95
20971;BME280;10644;48.834;10.088;2024-01-25T07:38:31;97890.31;;;10.89;61.77
20971;BME280;10644;48.834;10.088;2024-01-25T07:40:56;97899.47;;;10.72;62.19
20971;BME280;10644;48.834;10.088;2024-01-25T07:43:24;97903.25;;;10.85;62.15
20971;BME280;10644;48.834;10.088;2024-01-25T07:45:54;97913.91;;;10.74;62.29
20971;BME280;10644;48.834;10.088;2024-01-25T07:48:40;97916.81;;;10.88;61.78
20971;BME280;10644;48.834;10.088;2024-01-25T07:51:32;97923.50;;;10.92;63.03
20971;BME280;10644;48.834;10.088;2024-01-25T07:53:57;97933.28;;;11.06;62.40
20971;BME280;10644;48.834;10.088;2024-01-25T07:56:25;97927.75;;;11.16;61.44
20971;BME280;10644;48.834;10.088;2024-01-25T07:58:55;97951.50;;;11.21;62.24
20971;BME280;10644;48.834;10.088;2024-01-25T08:01:24;97948.72;;;11.27;61.15
20971;BME280;10644;48.834;10.088;2024-01-25T08:03:49;97951.94;;;11.32;60.94
20971;BME280;10644;48.834;10.088;2024-01-25T08:06:24;97941.38;;;11.41;60.64
20971;BME280;10644;48.834;10.088;2024-01-25T08:09:00;97952.66;;;11.36;60.32
20971;BME280;10644;48.834;10.088;2024-01-25T08:11:25;97932.28;;;11.33;60.92
20971;BME280;10644;48.834;10.088;2024-01-25T08:13:51;97942.81;;;11.48;60.93
20971;BME280;10644;48.834;10.088;2024-01-25T08:16:19;97928.72;;;11.37;60.23
20971;BME280;10644;48.834;10.088;2024-01-25T08:18:46;97948.28;;;11.39;59.97
20971;BME280;10644;48.834;10.088;2024-01-25T08:21:12;97951.22;;;11.29;60.52
20971;BME280;10644;48.834;10.088;2024-01-25T08:23:37;97945.16;;;11.31;60.44
20971;BME280;10644;48.834;10.088;2024-01-25T08:26:04;97951.28;;;11.50;59.83
20971;BME280;10644;48.834;10.088;2024-01-25T08:28:40;97935.28;;;11.44;59.93
20971;BME280;10644;48.834;10.088;2024-01-25T08:31:10;97936.72;;;11.51;59.66
20971;BME280;10644;48.834;10.088;2024-01-25T08:33:36;97943.88;;;11.66;59.18
20971;BME280;10644;48.834;10.088;2024-01-25T08:36:02;97943.84;;;11.67;59.34
20971;BME280;10644;48.834;10.088;2024-01-25T08:38:34;97934.06;;;11.77;59.25
20971;BME280;10644;48.834;10.088;2024-01-25T08:41:09;97936.19;;;11.87;59.14
20971;BME280;10644;48.834;10.088;2024-01-25T08:43:36;97936.25;;;11.86;59.26
20971;BME280;10644;48.834;10.088;2024-01-25T08:46:02;97935.38;;;11.64;59.34
20971;BME280;10644;48.834;10.088;2024-01-25T08:48:27;97939.75;;;11.83;59.47
20971;BME280;10644;48.834;10.088;2024-01-25T08:50:55;97949.22;;;11.83;59.46
20971;BME280;10644;48.834;10.088;2024-01-25T08:53:23;97942.69;;;11.74;59.40
20971;BME280;10644;48.834;10.088;2024-01-25T08:55:53;97936.53;;;11.78;60.23
20971;BME280;10644;48.834;10.088;2024-01-25T08:58:19;97947.69;;;11.77;59.73
20971;BME280;10644;48.834;10.088;2024-01-25T09:00:45;97960.19;;;11.86;59.54
20971;BME280;10644;48.834;10.088;2024-01-25T09:03:10;97941.69;;;12.00;59.49
20971;BME280;10644;48.834;10.088;2024-01-25T09:05:38;97951.00;;;12.02;60.11
20971;BME280;10644;48.834;10.088;2024-01-25T09:08:13;97949.44;;;11.98;59.01
20971;BME280;10644;48.834;10.088;2024-01-25T09:10:41;97960.25;;;12.06;59.38
20971;BME280;10644;48.834;10.088;2024-01-25T09:13:08;97945.44;;;12.13;59.04
20971;BME280;10644;48.834;10.088;2024-01-25T09:15:38;97948.84;;;11.92;58.94
20971;BME280;10644;48.834;10.088;2024-01-25T09:18:08;97960.03;;;12.12;59.37
20971;BME280;10644;48.834;10.088;2024-01-25T09:20:39;97934.72;;;12.23;58.41
20971;BME280;10644;48.834;10.088;2024-01-25T09:23:05;97958.59;;;12.27;59.01
20971;BME280;10644;48.834;10.088;2024-01-25T09:25:31;97946.81;;;12.21;58.72
20971;BME280;10644;48.834;10.088;2024-01-25T09:27:59;97947.88;;;12.37;58.93
20971;BME280;10644;48.834;10.088;2024-01-25T09:30:29;97942.47;;;12.43;58.45
20971;BME280;10644;48.834;10.088;2024-01-25T09:32:54;97959.56;;;12.44;58.38
20971;BME280;10644;48.834;10.088;2024-01-25T09:35:22;97972.81;;;12.55;59.74
20971;BME280;10644;48.834;10.088;2024-01-25T09:37:48;97974.56;;;12.75;59.44
20971;BME280;10644;48.834;10.088;2024-01-25T09:40:13;97978.41;;;12.85;58.69
20971;BME280;10644;48.834;10.088;2024-01-25T09:42:39;97978.84;;;12.94;58.26
20971;BME280;10644;48.834;10.088;2024-01-25T09:45:06;97985.28;;;12.84;58.20
20971;BME280;10644;48.834;10.088;2024-01-25T09:47:32;97997.44;;;12.61;58.38
20971;BME280;10644;48.834;10.088;2024-01-25T09:49:58;97988.69;;;12.65;58.73
20971;BME280;10644;48.834;10.088;2024-01-25T09:52:23;97997.50;;;12.79;57.76
20971;BME280;10644;48.834;10.088;2024-01-25T09:54:52;97992.16;;;12.64;58.36
20971;BME280;10644;48.834;10.088;2024-01-25T09:57:24;98002.88;;;12.73;57.53
20971;BME280;10644;48.834;10.088;2024-01-25T09:59:52;97995.81;;;13.00;57.93
20971;BME280;10644;48.834;10.088;2024-01-25T10:02:20;97988.16;;;12.98;56.54
20971;BME280;10644;48.834;10.088;2024-01-25T10:04:52;97997.19;;;12.87;57.24
20971;BME280;10644;48.834;10.088;2024-01-25T10:07:35;97985.53;;;12.78;58.42
20971;BME280;10644;48.834;10.088;2024-01-25T10:10:00;97999.91;;;13.04;55.56
20971;BME280;10644;48.834;10.088;2024-01-25T10:12:26;97989.16;;;12.94;56.55
20971;BME280;10644;48.834;10.088;2024-01-25T10:14:51;98000.16;;;13.18;55.95
20971;BME280;10644;48.834;10.088;2024-01-25T10:17:16;97992.78;;;13.10;56.26
20971;BME280;10644;48.834;10.088;2024-01-25T10:19:45;97992.19;;;13.24;56.32
20971;BME280;10644;48.834;10.088;2024-01-25T10:22:10;97990.22;;;13.10;55.93
20971;BME280;10644;48.834;10.088;2024-01-25T10:24:38;97996.31;;;13.08;55.42
20971;BME280;10644;48.834;10.088;2024-01-25T10:27:04;97993.59;;;12.91;56.14
20971;BME280;10644;48.834;10.088;2024-01-25T10:29:32;97995.13;;;12.95;55.69
20971;BME280;10644;48.834;10.088;2024-01-25T10:32:03;97989.94;;;12.96;55.96
20971;BME280;10644;48.834;10.088;2024-01-25T10:34:30;97976.56;;;12.88;55.79
20971;BME280;10644;48.834;10.088;2024-01-25T10:36:57;97984.00;;;12.94;56.35
20971;BME280;10644;48.834;10.088;2024-01-25T10:39:24;97975.91;;;12.83;56.09
20971;BME280;10644;48.834;10.088;2024-01-25T10:41:52;97971.22;;;12.73;56.08
20971;BME280;10644;48.834;10.088;2024-01-25T10:44:18;97971.03;;;12.57;55.81
20971;BME280;10644;48.834;10.088;2024-01-25T10:46:47;97965.28;;;12.51;55.95
20971;BME280;10644;48.834;10.088;2024-01-25T10:49:12;97970.53;;;12.69;55.27
20971;BME280;10644;48.834;10.088;2024-01-25T10:51:39;97976.41;;;12.71;55.13
20971;BME280;10644;48.834;10.088;2024-01-25T10:54:08;97964.44;;;12.90;54.89
20971;BME280;10644;48.834;10.088;2024-01-25T10:56:38;97954.16;;;12.90;54.55
20971;BME280;10644;48.834;10.088;2024-01-25T10:59:03;97954.56;;;13.21;54.94
20971;BME280;10644;48.834;10.088;2024-01-25T11:01:29;97950.63;;;13.51;54.54
20971;BME280;10644;48.834;10.088;2024-01-25T11:03:54;97956.00;;;13.65;54.58
20971;BME280;10644;48.834;10.088;2024-01-25T11:06:21;97949.50;;;13.75;54.42
20971;BME280;10644;48.834;10.088;2024-01-25T11:08:47;97944.84;;;13.83;53.98
20971;BME280;10644;48.834;10.088;2024-01-25T11:11:14;97940.19;;;14.08;53.51
20971;BME280;10644;48.834;10.088;2024-01-25T11:13:43;97932.44;;;14.26;51.79
20971;BME280;10644;48.834;10.088;2024-01-25T11:16:18;97926.81;;;14.18;50.62
20971;BME280;10644;48.834;10.088;2024-01-25T11:18:56;97935.88;;;14.08;50.60
20971;BME280;10644;48.834;10.088;2024-01-25T11:24:21;97930.13;;;13.85;50.67
20971;BME280;10644;48.834;10.088;2024-01-25T11:26:47;97912.13;;;13.66;50.63
20971;BME280;10644;48.834;10.088;2024-01-25T11:29:17;97920.63;;;13.50;51.05
20971;BME280;10644;48.834;10.088;2024-01-25T11:31:44;97909.78;;;13.43;51.25
20971;BME280;10644;48.834;10.088;2024-01-25T11:34:11;97909.50;;;13.49;51.10
20971;BME280;10644;48.834;10.088;2024-01-25T11:36:36;97913.66;;;13.52;51.10
20971;BME280;10644;48.834;10.088;2024-01-25T11:39:05;97912.84;;;13.33;51.11
20971;BME280;10644;48.834;10.088;2024-01-25T11:41:31;97918.38;;;13.24;51.50
20971;BME280;10644;48.834;10.088;2024-01-25T11:43:57;97914.31;;;13.20;51.10
20971;BME280;10644;48.834;10.088;2024-01-25T11:46:25;97906.84;;;13.14;51.76
20971;BME280;10644;48.834;10.088;2024-01-25T11:48:51;97904.50;;;13.28;51.29
20971;BME280;10644;48.834;10.088;2024-01-25T11:51:16;97901.78;;;13.49;51.40
20971;BME280;10644;48.834;10.088;2024-01-25T11:53:45;97888.34;;;13.25;50.52
20971;BME280;10644;48.834;10.088;2024-01-25T11:56:13;97893.63;;;13.22;50.61
20971;BME280;10644;48.834;10.088;2024-01-25T11:58:40;97886.13;;;13.17;50.66
20971;BME280;10644;48.834;10.088;2024-01-25T12:01:06;97875.56;;;13.23;50.49
20971;BME280;10644;48.834;10.088;2024-01-25T12:03:35;97873.31;;;13.34;50.14
20971;BME280;10644;48.834;10.088;2024-01-25T12:06:04;97879.44;;;13.50;50.21
20971;BME280;10644;48.834;10.088;2024-01-25T12:08:31;97894.47;;;13.59;49.66
20971;BME280;10644;48.834;10.088;2024-01-25T12:13:38;97885.78;;;14.14;48.96
20971;BME280;10644;48.834;10.088;2024-01-25T12:16:12;97893.72;;;14.28;48.97
20971;BME280;10644;48.834;10.088;2024-01-25T12:18:43;97878.25;;;14.45;48.20
20971;BME280;10644;48.834;10.088;2024-01-25T12:21:11;97891.19;;;14.77;48.46
20971;BME280;10644;48.834;10.088;2024-01-25T12:23:38;97888.22;;;14.85;47.54
20971;BME280;10644;48.834;10.088;2024-01-25T12:26:14;97876.56;;;14.61;47.77
20971;BME280;10644;48.834;10.088;2024-01-25T12:28:44;97865.47;;;14.59;46.63
20971;BME280;10644;48.834;10.088;2024-01-25T12:31:13;97870.97;;;14.19;46.99
20971;BME280;10644;48.834;10.088;2024-01-25T12:33:43;97864.00;;;14.21;47.68
20971;BME280;10644;48.834;10.088;2024-01-25T12:36:09;97870.03;;;14.37;46.83
20971;BME280;10644;48.834;10.088;2024-01-25T12:38:42;97871.56;;;14.41;46.99
20971;BME280;10644;48.834;10.088;2024-01-25T12:41:09;97867.69;;;14.49;47.35
20971;BME280;10644;48.834;10.088;2024-01-25T12:43:35;97869.16;;;14.55;47.34
20971;BME280;10644;48.834;10.088;2024-01-25T12:46:00;97867.19;;;14.60;47.98
20971;BME280;10644;48.834;10.088;2024-01-25T12:48:26;97868.47;;;14.68;46.81
20971;BME280;10644;48.834;10.088;2024-01-25T12:50:52;97867.31;;;14.57;46.41
20971;BME280;10644;48.834;10.088;2024-01-25T12:53:17;97852.78;;;14.39;46.50
20971;BME280;10644;48.834;10.088;2024-01-25T12:55:43;97848.06;;;14.30;47.06